Time;durP1;ratioP1;P1;durP2;ratioP2;P2;SDS_P1;SDS_P2;PMS_P1;PMS_P2;Temp;Humidity;BMP_temperature;BMP_pressure;BME280_temperature;BME280_humidity;BME280_pressure;Samples;Min_cycle;Max_cycle;Signal;HPM_P1;HPM_P2
2022/10/20 00:02:19;;;;;;;;;;;2.90;99.90;;;;;;6247467;23;19911;-91
2022/10/20 00:04:46;;;;;;;;;;;2.90;99.90;;;;;;6247514;23;19922;-92
2022/10/20 00:07:13;;;;;;;;;;;2.90;1.00;;;;;;6247794;23;19911;-91
2022/10/20 00:09:40;;;;;;;;;;;2.90;1.00;;;;;;6247962;22;19912;-91
2022/10/20 00:12:07;;;;;;;;;;;2.90;1.00;;;;;;6247787;22;19922;-91
2022/10/20 00:14:35;;;;;;;;;;;2.90;1.00;;;;;;6247526;23;19915;-91
2022/10/20 00:17:04;;;;;;;;;;;;;;;;;;6247577;22;19915;-91
2022/10/20 00:19:31;;;;;;;;;;;2.70;1.00;;;;;;6247808;23;19918;-91
2022/10/20 00:21:58;;;;;;;;;;;2.70;1.00;;;;;;6247946;23;19934;-91
2022/10/20 00:24:25;;;;;;;;;;;2.60;99.90;;;;;;6247720;23;19911;-91
2022/10/20 00:26:52;;;;;;;;;;;2.60;99.90;;;;;;6247935;23;19998;-91
2022/10/20 00:29:19;;;;;;;;;;;2.60;99.90;;;;;;6248113;22;20265;-91
2022/10/20 00:31:48;;;;;;;;;;;2.60;99.90;;;;;;6247539;23;20238;-91
2022/10/20 00:34:14;;;;;;;;;;;2.70;99.90;;;;;;6247430;22;19919;-92
2022/10/20 00:36:41;;;;;;;;;;;2.70;99.90;;;;;;6247458;23;19988;-92
2022/10/20 00:39:08;;;;;;;;;;;2.80;1.00;;;;;;6246933;23;19965;-92
2022/10/20 00:41:35;;;;;;;;;;;2.90;1.00;;;;;;6247668;22;19911;-91
2022/10/20 00:44:03;;;;;;;;;;;2.90;35.50;;;;;;6248004;22;19911;-92
2022/10/20 00:46:32;;;;;;;;;;;3.00;1.00;;;;;;6247743;23;19915;-92
2022/10/20 00:49:02;;;;;;;;;;;3.10;99.90;;;;;;6247824;23;19957;-91
2022/10/20 00:51:30;;;;;;;;;;;3.10;99.90;;;;;;6247545;22;20234;-92
2022/10/20 00:54:00;;;;;;;;;;;3.20;1.00;;;;;;6247518;23;19912;-91
2022/10/20 00:56:27;;;;;;;;;;;3.20;1.00;;;;;;6246982;23;19915;-92
2022/10/20 00:58:55;;;;;;;;;;;3.20;1.00;;;;;;6247158;22;19911;-91
2022/10/20 01:01:22;;;;;;;;;;;3.30;1.00;;;;;;6247306;22;19915;-92
2022/10/20 01:03:50;;;;;;;;;;;3.30;1.00;;;;;;6247951;23;19990;-92
2022/10/20 01:06:20;;;;;;;;;;;3.30;99.90;;;;;;6247442;23;19988;-92
2022/10/20 01:08:48;;;;;;;;;;;3.30;1.00;;;;;;6247290;23;19912;-92
2022/10/20 01:11:20;;;;;;;;;;;3.30;99.90;;;;;;6247569;22;19918;-91
2022/10/20 01:13:53;;;;;;;;;;;3.30;1.00;;;;;;6247268;23;19935;-90
2022/10/20 01:16:24;;;;;;;;;;;3.30;1.00;;;;;;6247039;23;19982;-92
2022/10/20 01:19:00;;;;;;;;;;;3.30;1.00;;;;;;6247317;23;19966;-91
2022/10/20 01:21:45;;;;;;;;;;;3.40;99.90;;;;;;6247427;23;19931;-91
2022/10/20 01:24:29;;;;;;;;;;;3.30;1.00;;;;;;6227031;23;19998;-92
2022/10/20 01:27:01;;;;;;;;;;;3.40;1.00;;;;;;6247280;23;19911;-92
2022/10/20 01:29:34;;;;;;;;;;;3.40;1.00;;;;;;6246187;23;19911;-92
2022/10/20 01:32:06;;;;;;;;;;;3.40;1.00;;;;;;6247671;23;19911;-92
2022/10/20 01:34:38;;;;;;;;;;;3.40;99.90;;;;;;6247311;23;19918;-92
2022/10/20 01:37:08;;;;;;;;;;;3.40;99.90;;;;;;6247173;23;19912;-92
2022/10/20 01:39:40;;;;;;;;;;;3.40;99.90;;;;;;6247435;23;20298;-91
2022/10/20 01:42:09;;;;;;;;;;;3.40;99.90;;;;;;6246901;23;19948;-91
2022/10/20 01:44:39;;;;;;;;;;;3.40;99.90;;;;;;6247029;22;20310;-92
2022/10/20 01:47:07;;;;;;;;;;;3.40;99.90;;;;;;6247279;23;19911;-91
2022/10/20 01:49:34;;;;;;;;;;;3.30;99.90;;;;;;6246809;22;19963;-92
2022/10/20 01:52:01;;;;;;;;;;;3.30;99.90;;;;;;6247073;22;19986;-92
2022/10/20 01:54:29;;;;;;;;;;;3.30;36.80;;;;;;6247210;22;19918;-91
2022/10/20 01:57:03;;;;;;;;;;;3.30;41.10;;;;;;6246481;23;19947;-92
2022/10/20 01:59:34;;;;;;;;;;;3.20;94.30;;;;;;6247422;23;20315;-92
2022/10/20 02:02:11;;;;;;;;;;;3.20;59.70;;;;;;6246666;22;19919;-91
2022/10/20 02:04:44;;;;;;;;;;;3.20;99.90;;;;;;6246931;23;19912;-92
2022/10/20 02:07:13;;;;;;;;;;;3.20;90.20;;;;;;6246920;23;19918;-91
2022/10/20 02:09:43;;;;;;;;;;;3.20;1.00;;;;;;6247104;23;19919;-91
2022/10/20 02:12:13;;;;;;;;;;;3.10;1.00;;;;;;6246299;23;19938;-91
2022/10/20 02:14:41;;;;;;;;;;;3.10;1.00;;;;;;6246651;23;19915;-91
2022/10/20 02:17:13;;;;;;;;;;;3.00;1.00;;;;;;6246385;22;19915;-91
2022/10/20 02:19:40;;;;;;;;;;;3.00;1.00;;;;;;6246846;23;20373;-91
2022/10/20 02:22:08;;;;;;;;;;;2.90;1.00;;;;;;6246932;22;19921;-92
2022/10/20 02:24:36;;;;;;;;;;;2.90;1.00;;;;;;6246499;22;19912;-93
2022/10/20 02:27:04;;;;;;;;;;;2.80;1.00;;;;;;6247075;23;19916;-92
2022/10/20 02:29:37;;;;;;;;;;;2.80;1.00;;;;;;6246611;22;19950;-91
2022/10/20 02:32:04;;;;;;;;;;;2.80;1.00;;;;;;6247159;23;19912;-92
2022/10/20 02:34:32;;;;;;;;;;;2.70;1.00;;;;;;6247212;22;19988;-92
2022/10/20 02:36:59;;;;;;;;;;;2.70;1.00;;;;;;6246761;23;19911;-91
2022/10/20 02:39:26;;;;;;;;;;;2.60;1.00;;;;;;6246549;22;19917;-91
2022/10/20 02:41:53;;;;;;;;;;;2.60;1.00;;;;;;6246609;22;19919;-91
2022/10/20 02:44:21;;;;;;;;;;;2.50;1.00;;;;;;6246615;23;19918;-92
2022/10/20 02:46:48;;;;;;;;;;;2.50;1.00;;;;;;6246299;22;19912;-91
2022/10/20 02:49:15;;;;;;;;;;;2.40;1.00;;;;;;6246682;23;19911;-92
2022/10/20 02:51:43;;;;;;;;;;;2.50;1.00;;;;;;6247032;22;20333;-92
2022/10/20 02:54:10;;;;;;;;;;;2.40;1.00;;;;;;6246457;23;20221;-92
2022/10/20 02:56:37;;;;;;;;;;;2.30;1.00;;;;;;6246919;22;19911;-91
2022/10/20 02:59:04;;;;;;;;;;;2.20;1.00;;;;;;6248791;22;19915;-92
2022/10/20 03:01:31;;;;;;;;;;;2.20;51.60;;;;;;6249144;22;19911;-92
2022/10/20 03:03:58;;;;;;;;;;;2.20;99.90;;;;;;6248226;22;19912;-91
2022/10/20 03:06:25;;;;;;;;;;;2.20;38.30;;;;;;6249074;22;20257;-92
2022/10/20 03:08:54;;;;;;;;;;;2.10;1.00;;;;;;6248240;23;19943;-92
2022/10/20 03:11:21;;;;;;;;;;;2.10;1.00;;;;;;6249945;23;20229;-92
2022/10/20 03:13:48;;;;;;;;;;;2.00;1.00;;;;;;6256459;22;19912;-92
2022/10/20 03:16:15;;;;;;;;;;;2.00;1.00;;;;;;6257782;22;19911;-92
2022/10/20 03:18:42;;;;;;;;;;;1.90;1.00;;;;;;6258105;22;20188;-91
2022/10/20 03:21:10;;;;;;;;;;;1.90;1.00;;;;;;6251049;22;19911;-92
2022/10/20 03:23:36;;;;;;;;;;;1.90;23.20;;;;;;6248577;22;19937;-92
2022/10/20 03:26:06;;;;;;;;;;;1.90;99.90;;;;;;6248554;23;20329;-92
2022/10/20 03:28:33;;;;;;;;;;;2.00;1.00;;;;;;6248305;23;20282;-91
2022/10/20 03:31:00;;;;;;;;;;;2.10;99.90;;;;;;6248335;22;19912;-91
2022/10/20 03:33:27;;;;;;;;;;;2.20;1.00;;;;;;6248339;22;20311;-92
2022/10/20 03:35:54;;;;;;;;;;;2.20;1.00;;;;;;6247911;22;19993;-91
2022/10/20 03:38:21;;;;;;;;;;;2.30;1.00;;;;;;6248053;22;19911;-91
2022/10/20 03:40:49;;;;;;;;;;;2.40;1.00;;;;;;6255653;23;19911;-90
2022/10/20 03:43:18;;;;;;;;;;;2.40;99.90;;;;;;6256946;23;19912;-90
2022/10/20 03:45:44;;;;;;;;;;;2.50;99.90;;;;;;6256530;23;19921;-90
2022/10/20 03:48:12;;;;;;;;;;;2.50;1.00;;;;;;6263678;23;20334;-90
2022/10/20 03:50:39;;;;;;;;;;;2.50;1.00;;;;;;6261440;22;19911;-91
2022/10/20 03:53:06;;;;;;;;;;;2.50;1.00;;;;;;6261097;22;19915;-91
2022/10/20 03:55:34;;;;;;;;;;;2.50;99.90;;;;;;6260692;22;19915;-90
2022/10/20 03:58:01;;;;;;;;;;;2.50;99.90;;;;;;6260206;23;19958;-91
2022/10/20 04:00:29;;;;;;;;;;;2.40;99.90;;;;;;6247578;23;19986;-90
2022/10/20 04:02:56;;;;;;;;;;;2.30;14.40;;;;;;6247444;22;19946;-90
2022/10/20 04:05:23;;;;;;;;;;;2.30;76.00;;;;;;6247852;23;19916;-91
2022/10/20 04:07:50;;;;;;;;;;;2.30;99.90;;;;;;6247247;23;19918;-91
2022/10/20 04:10:17;;;;;;;;;;;2.20;34.40;;;;;;6247776;23;19918;-92
2022/10/20 04:12:44;;;;;;;;;;;2.20;99.90;;;;;;6247752;22;19922;-91
2022/10/20 04:15:11;;;;;;;;;;;2.20;99.90;;;;;;6247505;22;19912;-90
2022/10/20 04:17:39;;;;;;;;;;;2.20;99.90;;;;;;6247591;23;20211;-90
2022/10/20 04:20:06;;;;;;;;;;;2.20;99.90;;;;;;6247735;23;19919;-91
2022/10/20 04:22:33;;;;;;;;;;;2.20;1.00;;;;;;6248136;22;20098;-90
2022/10/20 04:25:00;;;;;;;;;;;2.20;99.90;;;;;;6247494;22;20307;-90
2022/10/20 04:27:27;;;;;;;;;;;2.30;99.90;;;;;;6247325;23;19915;-90
2022/10/20 04:29:54;;;;;;;;;;;2.40;99.90;;;;;;6247022;23;19973;-91
2022/10/20 04:32:21;;;;;;;;;;;2.50;1.00;;;;;;6247195;22;19919;-89
2022/10/20 04:34:49;;;;;;;;;;;2.60;1.00;;;;;;6246958;22;19918;-90
2022/10/20 04:37:16;;;;;;;;;;;2.60;1.00;;;;;;6247245;22;19911;-90
2022/10/20 04:39:43;;;;;;;;;;;2.70;1.00;;;;;;6247358;23;19916;-89
2022/10/20 04:42:10;;;;;;;;;;;2.80;1.00;;;;;;6246633;22;19918;-90
2022/10/20 04:44:37;;;;;;;;;;;2.80;55.80;;;;;;6247600;23;19915;-92
2022/10/20 04:47:04;;;;;;;;;;;2.90;1.00;;;;;;6247424;23;20254;-90
2022/10/20 04:49:31;;;;;;;;;;;2.80;2.60;;;;;;6247248;23;19912;-89
2022/10/20 04:51:59;;;;;;;;;;;2.70;1.00;;;;;;6246954;22;20250;-89
2022/10/20 04:54:26;;;;;;;;;;;2.60;1.00;;;;;;6247043;23;19915;-89
2022/10/20 04:56:53;;;;;;;;;;;2.50;1.00;;;;;;6247088;22;19965;-89
2022/10/20 04:59:19;;;;;;;;;;;2.40;1.00;;;;;;6246220;22;19918;-90
2022/10/20 05:01:47;;;;;;;;;;;2.30;1.00;;;;;;6246791;22;19918;-89
2022/10/20 05:04:19;;;;;;;;;;;2.20;1.00;;;;;;6246329;23;19990;-90
2022/10/20 05:06:47;;;;;;;;;;;2.10;1.00;;;;;;6246446;23;19915;-89
2022/10/20 05:09:16;;;;;;;;;;;2.00;1.00;;;;;;6246172;23;19915;-88
2022/10/20 05:11:43;;;;;;;;;;;2.00;1.00;;;;;;6246780;22;19915;-89
2022/10/20 05:14:10;;;;;;;;;;;2.00;1.00;;;;;;6245503;23;19911;-87
2022/10/20 05:16:37;;;;;;;;;;;2.00;1.00;;;;;;6245353;22;20349;-87
2022/10/20 05:19:03;;;;;;;;;;;2.00;8.90;;;;;;6244404;23;19915;-87
2022/10/20 05:21:31;;;;;;;;;;;2.00;99.90;;;;;;6245723;22;19912;-87
2022/10/20 05:23:59;;;;;;;;;;;2.00;99.90;;;;;;6245985;23;19912;-87
2022/10/20 05:26:28;;;;;;;;;;;2.10;1.00;;;;;;6245758;23;19987;-87
2022/10/20 05:28:55;;;;;;;;;;;2.20;1.00;;;;;;6245427;23;19918;-86
2022/10/20 05:31:22;;;;;;;;;;;2.30;1.00;;;;;;6245884;22;19911;-87
2022/10/20 05:33:50;;;;;;;;;;;2.40;1.00;;;;;;6245624;22;19916;-87
2022/10/20 05:36:18;;;;;;;;;;;2.40;1.00;;;;;;6245752;23;20238;-87
2022/10/20 05:38:45;;;;;;;;;;;2.50;1.00;;;;;;6245560;23;19994;-86
2022/10/20 05:41:13;;;;;;;;;;;2.50;1.00;;;;;;6245779;23;19918;-86
2022/10/20 05:43:42;;;;;;;;;;;2.60;99.90;;;;;;6246002;22;19915;-87
2022/10/20 05:46:09;;;;;;;;;;;2.60;99.90;;;;;;6245901;22;19911;-87
2022/10/20 05:48:36;;;;;;;;;;;2.70;99.90;;;;;;6249138;22;19918;-86
2022/10/20 05:51:09;;;;;;;;;;;2.70;1.00;;;;;;6245657;22;20262;-87
2022/10/20 05:53:36;;;;;;;;;;;2.70;99.90;;;;;;6245603;22;19918;-87
2022/10/20 05:56:03;;;;;;;;;;;2.70;99.90;;;;;;6245495;22;19918;-86
2022/10/20 05:58:30;;;;;;;;;;;2.70;99.90;;;;;;6245106;23;19919;-85
2022/10/20 06:01:05;;;;;;;;;;;2.70;99.90;;;;;;6245411;23;20238;-86
2022/10/20 06:03:32;;;;;;;;;;;2.70;99.90;;;;;;6245298;23;19938;-86
2022/10/20 06:05:59;;;;;;;;;;;2.70;99.90;;;;;;6245116;23;19911;-86
2022/10/20 06:08:29;;;;;;;;;;;2.70;34.50;;;;;;6245185;22;20249;-87
2022/10/20 06:10:55;;;;;;;;;;;2.70;1.00;;;;;;6245346;23;19911;-86
2022/10/20 06:13:22;;;;;;;;;;;2.70;1.00;;;;;;6245346;23;19977;-87
2022/10/20 06:15:49;;;;;;;;;;;2.80;99.90;;;;;;6245489;22;20322;-86
2022/10/20 06:18:17;;;;;;;;;;;2.90;99.90;;;;;;6245136;23;19919;-86
2022/10/20 06:20:44;;;;;;;;;;;3.00;99.90;;;;;;6245423;23;19915;-86
2022/10/20 06:23:11;;;;;;;;;;;3.00;99.90;;;;;;6245618;22;19957;-87
2022/10/20 06:25:38;;;;;;;;;;;3.10;1.00;;;;;;6245862;22;19962;-86
2022/10/20 06:28:05;;;;;;;;;;;3.30;1.00;;;;;;6244938;23;19919;-86
2022/10/20 06:30:31;;;;;;;;;;;3.50;1.00;;;;;;6245241;22;19911;-86
2022/10/20 06:32:58;;;;;;;;;;;3.80;47.20;;;;;;6245472;23;19915;-86
2022/10/20 06:35:35;;;;;;;;;;;4.00;99.90;;;;;;6244823;23;19911;-89
2022/10/20 06:38:02;;;;;;;;;;;4.30;99.90;;;;;;6245447;23;19918;-86
2022/10/20 06:40:29;;;;;;;;;;;4.70;99.90;;;;;;6244808;22;19957;-86
2022/10/20 06:42:56;;;;;;;;;;;5.50;99.90;;;;;;6245413;23;20274;-86
2022/10/20 06:45:23;;;;;;;;;;;6.60;1.00;;;;;;6245189;22;19915;-86
2022/10/20 06:47:49;;;;;;;;;;;7.80;99.90;;;;;;6245013;23;20227;-87
2022/10/20 06:50:16;;;;;;;;;;;9.00;99.90;;;;;;6244776;23;19915;-87
2022/10/20 06:52:43;;;;;;;;;;;;;;;;;;6245221;22;20288;-87
2022/10/20 06:55:11;;;;;;;;;;;11.30;99.90;;;;;;6245043;23;20342;-87
2022/10/20 06:57:38;;;;;;;;;;;12.30;1.00;;;;;;6245357;23;19937;-87
2022/10/20 07:00:06;;;;;;;;;;;13.20;1.00;;;;;;6245066;23;19966;-88
2022/10/20 07:02:33;;;;;;;;;;;14.10;1.00;;;;;;6245048;23;20033;-88
2022/10/20 07:05:00;;;;;;;;;;;15.00;99.90;;;;;;6244920;23;19911;-88
2022/10/20 07:07:27;;;;;;;;;;;15.50;1.00;;;;;;6245112;22;19920;-89
2022/10/20 07:09:53;;;;;;;;;;;16.20;99.90;;;;;;6244819;22;19911;-89
2022/10/20 07:12:22;;;;;;;;;;;16.80;99.70;;;;;;6245361;23;19919;-90
2022/10/20 07:14:49;;;;;;;;;;;17.30;99.90;;;;;;6245511;22;19912;-90
2022/10/20 07:17:15;;;;;;;;;;;17.90;1.00;;;;;;6245565;23;19915;-89
2022/10/20 07:19:42;;;;;;;;;;;18.20;28.70;;;;;;6245585;23;19912;-90
2022/10/20 07:22:09;;;;;;;;;;;18.50;1.00;;;;;;6245434;23;19912;-90
2022/10/20 07:24:36;;;;;;;;;;;18.90;99.90;;;;;;6245093;23;19912;-89
2022/10/20 07:27:03;;;;;;;;;;;19.20;1.00;;;;;;6245329;23;20231;-89
2022/10/20 07:29:32;;;;;;;;;;;19.50;1.00;;;;;;6245346;22;19919;-89
2022/10/20 07:32:04;;;;;;;;;;;20.00;1.00;;;;;;6245357;23;20307;-92
2022/10/20 07:34:31;;;;;;;;;;;20.40;1.00;;;;;;6244953;23;19918;-92
2022/10/20 07:36:58;;;;;;;;;;;21.00;1.00;;;;;;6245279;23;19919;-88
2022/10/20 07:39:25;;;;;;;;;;;21.60;1.00;;;;;;6245306;23;19915;-88
2022/10/20 07:42:10;;;;;;;;;;;22.10;1.00;;;;;;6245261;22;20064;-89
2022/10/20 07:44:37;;;;;;;;;;;;;;;;;;6246774;23;20325;-89
2022/10/20 07:47:05;;;;;;;;;;;23.20;1.00;;;;;;6246589;22;19912;-88
2022/10/20 07:49:32;;;;;;;;;;;23.40;1.00;;;;;;6246913;23;20219;-88
2022/10/20 07:51:59;;;;;;;;;;;23.60;1.00;;;;;;6246993;22;19911;-88
2022/10/20 07:54:26;;;;;;;;;;;23.70;1.00;;;;;;6246460;23;20326;-88
2022/10/20 07:56:53;;;;;;;;;;;23.70;1.00;;;;;;6246794;22;19915;-88
2022/10/20 07:59:19;;;;;;;;;;;23.70;1.00;;;;;;6246393;22;19918;-88
2022/10/20 08:01:46;;;;;;;;;;;23.90;1.00;;;;;;6247105;23;19969;-88
2022/10/20 08:04:14;;;;;;;;;;;24.10;1.00;;;;;;6246245;23;19915;-87
2022/10/20 08:06:41;;;;;;;;;;;24.30;1.00;;;;;;6246650;23;19911;-88
2022/10/20 08:09:08;;;;;;;;;;;24.40;1.00;;;;;;6246265;22;20299;-88
2022/10/20 08:11:35;;;;;;;;;;;24.30;1.00;;;;;;6246277;23;19911;-87
2022/10/20 08:14:02;;;;;;;;;;;24.20;1.00;;;;;;6246006;22;20273;-87
2022/10/20 08:16:33;;;;;;;;;;;24.00;1.00;;;;;;6246271;23;19912;-92
2022/10/20 08:19:00;;;;;;;;;;;23.90;1.00;;;;;;6251905;23;19915;-89
2022/10/20 08:21:36;;;;;;;;;;;23.80;1.00;;;;;;6246146;23;19922;-91
2022/10/20 08:24:03;;;;;;;;;;;23.90;1.00;;;;;;6247354;23;20216;-88
2022/10/20 08:26:32;;;;;;;;;;;23.80;1.00;;;;;;6246074;23;19973;-88
2022/10/20 08:29:01;;;;;;;;;;;23.40;1.00;;;;;;6246248;22;19958;-90
2022/10/20 08:31:28;;;;;;;;;;;23.30;1.00;;;;;;6246415;23;19918;-90
2022/10/20 08:33:55;;;;;;;;;;;23.50;1.00;;;;;;6248548;23;19918;-87
2022/10/20 08:36:23;;;;;;;;;;;23.70;1.00;;;;;;6246482;23;19951;-91
2022/10/20 08:38:53;;;;;;;;;;;24.00;1.00;;;;;;6248113;22;19918;-88
2022/10/20 08:41:21;;;;;;;;;;;24.20;1.00;;;;;;6246633;23;19986;-88
2022/10/20 08:43:57;;;;;;;;;;;24.30;1.00;;;;;;6246053;22;20211;-93
2022/10/20 08:46:27;;;;;;;;;;;24.50;1.00;;;;;;6245930;23;19970;-90
2022/10/20 08:48:53;;;;;;;;;;;24.70;1.00;;;;;;6245924;23;19912;-87
2022/10/20 08:51:22;;;;;;;;;;;24.70;1.00;;;;;;6246367;22;19911;-86
2022/10/20 08:53:50;;;;;;;;;;;24.80;1.00;;;;;;6245875;23;19918;-87
2022/10/20 08:56:20;;;;;;;;;;;24.90;1.00;;;;;;6245956;23;19915;-87
2022/10/20 08:58:47;;;;;;;;;;;24.40;1.00;;;;;;6246060;22;19931;-87
2022/10/20 09:01:19;;;;;;;;;;;24.10;1.00;;;;;;6245703;23;19912;-86
2022/10/20 09:03:48;;;;;;;;;;;23.90;1.00;;;;;;6245633;23;19918;-87
2022/10/20 09:06:15;;;;;;;;;;;23.80;1.00;;;;;;6246066;22;19912;-87
2022/10/20 09:08:43;;;;;;;;;;;23.60;1.00;;;;;;6245668;23;19916;-87
2022/10/20 09:11:13;;;;;;;;;;;23.50;1.00;;;;;;6245793;23;19911;-87
2022/10/20 09:13:42;;;;;;;;;;;23.30;1.00;;;;;;6245593;22;20204;-87
2022/10/20 09:16:12;;;;;;;;;;;23.10;1.00;;;;;;6245895;22;19919;-87
2022/10/20 09:18:38;;;;;;;;;;;22.70;1.00;;;;;;6245514;23;19918;-88
2022/10/20 09:21:07;;;;;;;;;;;22.20;1.00;;;;;;6249184;22;19911;-89
2022/10/20 09:23:35;;;;;;;;;;;22.00;1.00;;;;;;6246040;23;19911;-89
2022/10/20 09:26:05;;;;;;;;;;;21.50;1.00;;;;;;6245882;22;19918;-92
2022/10/20 09:28:32;;;;;;;;;;;21.10;1.00;;;;;;6245428;22;19918;-88
2022/10/20 09:31:00;;;;;;;;;;;20.70;1.00;;;;;;6245777;23;20269;-88
2022/10/20 09:33:30;;;;;;;;;;;20.30;1.00;;;;;;6245542;22;20222;-88
2022/10/20 09:36:05;;;;;;;;;;;20.10;1.00;;;;;;6245537;23;19969;-88
2022/10/20 09:38:33;;;;;;;;;;;19.70;1.00;;;;;;6246380;23;19969;-88
2022/10/20 09:41:09;;;;;;;91.57;28.70;;;19.20;1.00;;;;;;6245231;22;20179;-87
2022/10/20 09:43:39;;;;;;;94.25;29.45;;;18.50;1.00;;;;;;6245309;23;20152;-87
2022/10/20 09:46:11;;;;;;;89.18;28.83;;;17.80;1.00;;;;;;6245250;23;20155;-87
2022/10/20 09:48:40;;;;;;;80.28;27.42;;;17.40;1.00;;;;;;6244942;23;20156;-86
2022/10/20 09:51:13;;;;;;;70.65;26.05;;;17.20;1.00;;;;;;6245164;23;20496;-87
2022/10/20 09:53:54;;;;;;;53.88;23.60;;;17.00;1.00;;;;;;6245243;23;20152;-87
2022/10/20 09:56:25;;;;;;;44.70;21.88;;;;;;;;;;6245213;23;20466;-87
2022/10/20 09:58:52;;;;;;;28.40;19.30;;;16.30;1.00;;;;;;6245325;23;20156;-87
2022/10/20 10:01:21;;;;;;;;;;;15.90;1.00;;;;;;6245545;23;20163;-87
2022/10/20 10:03:52;;;;;;;64.33;25.20;;;15.50;1.00;;;;;;6257357;22;20405;-88
2022/10/20 10:06:30;;;;;;;40.03;20.77;;;15.20;1.00;;;;;;6255480;23;20155;-90
2022/10/20 10:08:59;;;;;;;39.05;20.35;;;15.00;1.00;;;;;;6244381;22;20340;-87
2022/10/20 10:11:32;;;;;;;33.08;19.88;;;14.90;1.00;;;;;;6248636;23;20199;-87
2022/10/20 10:13:59;;;;;;;;;;;14.80;1.00;;;;;;6245165;23;20601;-87
2022/10/20 10:16:28;;;;;;;104.90;30.77;;;14.70;1.00;;;;;;6250059;22;20386;-89
2022/10/20 10:19:00;;;;;;;65.10;25.25;;;14.40;1.00;;;;;;6244862;23;20614;-87
2022/10/20 10:21:28;;;;;;;58.95;24.30;;;14.30;1.00;;;;;;6245128;23;20151;-88
2022/10/20 10:23:59;;;;;;;58.22;24.10;;;14.10;1.00;;;;;;6245105;23;20170;-87
2022/10/20 10:26:47;;;;;;;54.42;23.42;;;13.90;1.00;;;;;;6244966;23;20646;-87
2022/10/20 10:29:25;;;;;;;54.53;23.45;;;13.70;1.00;;;;;;6244922;23;20226;-87
2022/10/20 10:31:58;;;;;;;52.10;22.88;;;13.70;1.00;;;;;;6244761;23;20178;-87
2022/10/20 10:34:58;;;;;;;52.05;23.00;;;13.60;1.00;;;;;;6245175;23;20155;-87
2022/10/20 10:37:36;;;;;;;50.45;22.45;;;13.60;1.00;;;;;;6249596;23;20487;-89
2022/10/20 10:40:13;;;;;;;51.40;22.80;;;13.50;1.00;;;;;;6244476;23;20148;-87
2022/10/20 10:43:00;;;;;;;52.20;22.92;;;13.40;1.00;;;;;;6244905;23;20151;-87
2022/10/20 10:45:48;;;;;;;52.25;22.95;;;13.20;1.00;;;;;;6258631;22;20172;-89
2022/10/20 10:48:37;;;;;;;40.22;20.55;;;13.10;1.00;;;;;;6255315;23;20172;-87
2022/10/20 10:51:10;;;;;;;41.78;21.00;;;13.00;1.00;;;;;;6244453;23;20233;-86
2022/10/20 10:54:07;;;;;;;41.38;20.40;;;12.90;1.00;;;;;;6246952;23;20169;-90
2022/10/20 10:56:55;;;;;;;44.03;21.50;;;12.90;1.00;;;;;;6258014;23;20140;-90
2022/10/20 10:59:26;;;;;;;45.88;21.75;;;13.00;1.00;;;;;;6248220;23;20582;-86
2022/10/20 11:02:26;;;;;;;46.92;22.05;;;13.00;1.00;;;;;;6248620;23;20479;-88
2022/10/20 11:05:23;;;;;;;48.75;22.45;;;13.00;1.00;;;;;;6244788;23;20152;-87
2022/10/20 11:10:51;;;;;;;54.85;23.95;;;12.90;1.00;;;;;;6267825;23;20182;-89
2022/10/20 11:13:25;;;;;;;56.28;24.25;;;12.80;1.00;;;;;;6244384;23;20637;-88
2022/10/20 11:16:12;;;;;;;57.20;24.38;;;12.80;1.00;;;;;;6250361;23;20159;-90
2022/10/20 11:19:02;;;;;;;57.00;24.05;;;12.80;1.00;;;;;;6257312;23;20159;-90
2022/10/20 11:21:42;;;;;;;57.30;24.08;;;12.70;1.00;;;;;;6246990;23;20214;-87
2022/10/20 11:24:22;;;;;;;54.33;23.08;;;12.80;1.00;;;;;;6246739;23;20144;-86
2022/10/20 11:26:53;;;;;;;57.50;23.63;;;12.70;1.00;;;;;;6250087;23;20598;-88
2022/10/20 11:29:29;;;;;;;57.40;23.38;;;12.70;1.00;;;;;;6246392;22;20195;-87
2022/10/20 11:32:04;;;;;;;59.78;23.83;;;12.70;1.00;;;;;;6246443;23;20630;-87
2022/10/20 11:34:37;;;;;;;57.72;23.25;;;12.80;1.00;;;;;;6246438;23;20148;-87
2022/10/20 11:37:13;;;;;;;60.08;23.75;;;12.80;1.00;;;;;;6246539;23;20149;-87
2022/10/20 11:40:04;;;;;;;59.10;23.70;;;12.90;1.00;;;;;;6265446;23;20159;-93
2022/10/20 11:42:41;;;;;;;59.10;23.67;;;13.00;1.00;;;;;;6263223;23;20188;-92
2022/10/20 11:45:28;;;;;;;62.93;24.43;;;13.00;1.00;;;;;;6246479;23;20166;-87
2022/10/20 11:48:02;;;;;;;61.55;23.92;;;13.00;1.00;;;;;;6252112;23;20164;-90
2022/10/20 11:50:52;;;;;;;60.45;23.83;;;13.00;1.00;;;;;;6260637;23;20167;-92
2022/10/20 11:53:48;;;;;;;60.50;23.98;;;13.10;1.00;;;;;;6263849;23;20518;-87
2022/10/20 11:56:55;;;;;;;61.40;24.23;;;13.10;1.00;;;;;;6245784;23;20628;-86
2022/10/20 11:59:54;;;;;;;58.22;23.83;;;13.20;1.00;;;;;;6094606;23;20155;-86
2022/10/20 12:02:52;;;;;;;59.72;24.38;;;13.20;1.00;;;;;;6246194;23;20164;-86
2022/10/20 12:05:35;;;;;;;60.03;24.88;;;13.20;1.00;;;;;;6245785;23;20673;-86
2022/10/20 12:08:29;;;;;;;60.72;24.67;;;13.20;1.00;;;;;;6245812;23;20494;-86
2022/10/20 12:11:03;;;;;;;60.88;24.90;;;13.10;1.00;;;;;;6246178;23;20183;-86
2022/10/20 12:13:39;;;;;;;61.30;24.77;;;13.10;1.00;;;;;;6246485;23;20171;-86
2022/10/20 12:16:06;;;;;;;61.58;25.08;;;13.10;1.00;;;;;;6245844;23;20159;-86
2022/10/20 12:18:34;;;;;;;61.78;24.95;;;13.10;1.00;;;;;;6245949;23;20610;-86
2022/10/20 12:21:03;;;;;;;61.45;25.02;;;13.20;1.00;;;;;;6246001;23;20172;-87
2022/10/20 12:24:01;;;;;;;59.30;24.63;;;13.20;1.00;;;;;;6246195;23;20210;-86
2022/10/20 12:27:05;;;;;;;61.30;25.08;;;13.20;1.00;;;;;;6245526;23;20168;-86
2022/10/20 12:29:57;;;;;;;62.35;25.17;;;13.20;1.00;;;;;;6245835;23;20444;-86
2022/10/20 12:32:35;;;;;;;60.72;25.02;;;13.10;1.00;;;;;;6246009;23;20208;-86
2022/10/20 12:35:53;;;;;;;60.05;24.73;;;13.10;1.00;;;;;;6246274;23;20151;-86
2022/10/20 12:38:22;;;;;;;48.47;22.42;;;13.10;1.00;;;;;;6245395;22;20635;-86
2022/10/20 12:40:54;;;;;;;44.80;21.95;;;13.10;1.00;;;;;;6245935;23;20223;-86
2022/10/20 12:43:35;;;;;;;48.42;22.90;;;13.10;1.00;;;;;;6245934;23;20148;-86
2022/10/20 12:46:09;;;;;;;52.08;23.35;;;13.00;1.00;;;;;;6246217;23;20152;-86
2022/10/20 12:48:43;;;;;;;49.17;22.95;;;13.00;1.00;;;;;;6245914;23;20147;-86
2022/10/20 12:51:21;;;;;;;60.42;24.58;;;12.90;1.00;;;;;;6245468;23;20529;-86
2022/10/20 12:53:58;;;;;;;59.85;24.02;;;12.80;1.00;;;;;;6245765;23;20148;-87
2022/10/20 12:56:34;;;;;;;60.17;23.63;;;12.70;1.00;;;;;;6245284;23;20594;-87
2022/10/20 12:59:43;;;;;;;61.78;24.17;;;12.60;1.00;;;;;;6245399;23;20152;-87
2022/10/20 13:02:49;;;;;;;61.42;23.98;;;12.60;1.00;;;;;;6207712;22;20187;-87
2022/10/20 13:05:41;;;;;;;61.75;24.08;;;12.60;1.00;;;;;;6231850;23;20160;-87
2022/10/20 13:08:31;;;;;;;60.45;23.80;;;12.50;1.00;;;;;;6245424;22;20164;-87
2022/10/20 13:11:40;;;;;;;57.53;23.25;;;12.50;1.00;;;;;;6245511;22;20175;-87
2022/10/20 13:14:27;;;;;;;56.45;23.20;;;12.50;1.00;;;;;;6174121;23;20160;-87
2022/10/20 13:17:02;;;;;;;58.00;23.60;;;12.40;1.00;;;;;;6245483;23;20214;-85
2022/10/20 13:19:43;;;;;;;57.78;23.35;;;12.40;1.00;;;;;;6244761;23;20156;-85
2022/10/20 13:22:36;;;;;;;55.97;23.30;;;12.40;1.00;;;;;;6245216;23;20175;-86
2022/10/20 13:25:06;;;;;;;55.95;23.00;;;12.30;1.00;;;;;;6245543;23;20197;-85
2022/10/20 13:33:27;;;;;;;51.25;22.08;;;11.30;1.00;;;;;;6271610;23;20172;-88
2022/10/20 13:36:02;;;;;;;54.15;22.92;;;12.20;1.00;;;;;;6247668;23;20133;-86
2022/10/20 13:38:40;;;;;;;49.85;22.17;;;12.20;1.00;;;;;;6247752;23;20223;-91
2022/10/20 13:41:15;;;;;;;52.03;22.35;;;12.10;1.00;;;;;;6260606;23;20176;-85
2022/10/20 13:43:51;;;;;;;53.60;22.75;;;12.10;1.00;;;;;;6256104;23;20150;-86
2022/10/20 13:46:59;;;;;;;49.75;21.85;;;12.10;1.00;;;;;;6257892;23;20163;-88
2022/10/20 13:49:33;;;;;;;46.40;21.60;;;;;;;;;;6250755;22;20528;-86
2022/10/20 13:52:10;;;;;;;45.88;20.98;;;11.90;1.00;;;;;;6264280;23;20160;-89
2022/10/20 13:54:43;;;;;;;45.90;21.13;;;12.00;1.00;;;;;;6253796;23;20152;-87
2022/10/20 13:57:22;;;;;;;42.92;20.60;;;12.00;1.00;;;;;;6244510;23;20152;-86
2022/10/20 13:59:55;;;;;;;42.38;20.70;;;12.00;1.00;;;;;;6244188;23;20155;-86
2022/10/20 14:02:23;;;;;;;;;;;;;;;;;;6244198;23;20438;-86
2022/10/20 14:05:01;;;;;;;;;;;11.70;1.00;;;;;;6243642;22;19911;-87
2022/10/20 14:07:35;;;;;;;;;;;11.60;1.00;;;;;;6245003;23;19918;-84
2022/10/20 14:10:02;;;;;;;;;;;11.60;1.00;;;;;;6245417;23;19915;-86
2022/10/20 14:12:31;;;;;;;;;;;11.60;1.00;;;;;;6244850;23;19930;-89
2022/10/20 14:14:58;;;;;;;;;;;11.50;1.00;;;;;;6245719;22;19911;-85
2022/10/20 14:17:25;;;;;;;;;;;11.40;1.00;;;;;;6245410;23;19962;-84
2022/10/20 14:20:07;;;;;;;;;;;11.40;1.00;;;;;;6245329;22;19911;-84
2022/10/20 14:22:35;;;;;;;;;;;11.40;1.00;;;;;;6245470;23;19915;-84
2022/10/20 14:25:06;;;;;;;39.63;19.77;;;11.30;1.00;;;;;;6244564;22;20329;-86
2022/10/20 14:27:36;;;;;;;39.42;19.73;;;11.30;1.00;;;;;;6244672;23;20152;-86
2022/10/20 14:30:06;;;;;;;39.83;20.00;;;11.30;1.00;;;;;;6251219;23;20171;-88
2022/10/20 14:32:39;;;;;;;38.65;19.58;;;11.20;1.00;;;;;;6244704;23;20151;-84
2022/10/20 14:35:20;;;;;;;37.90;19.50;;;11.20;1.00;;;;;;6245063;23;20183;-84